aviador You're here:

TIST Decoded Metar

ST. THOMAS in VIRGIN ISL.
Report Time2017-04-27 23:53:00
UTC Time2017-04-28 00:20:35
Flight Rules vfr VFR
Wind080° at 10 kt
W.Decomp.*RWY 10: 9.9 kt HW 1.2 kt LCW
W.Rank080° ranks 2
Current wind is above 080° avg. (8.1)
Visibility9999 m
Phenomena:N/A
Clouds:Few 024 Hf
Expected CloudBase > 1,200 ft AGL from Temp-Dew spread
CeilingNone
Temp26°C (ISA +11)
Dew Point23°C (84% RH)
QNH1016 hPa
Density Alt1,568 ft
Elevation23 ft
Report Wrong Elevation
Raw Report
TIST 272353Z 08010KT 10SM FEW024 26/23 A3000=

Extra information for TIST:More info

Metar Taf Metar & Taf Last 4 Metars F.Rules Stats Wind Profile Meteogram Temp Stats Airport Information Weather charts Add Link Nearby VenuesMetar ALERT Operation Metar Decoded Social comments